FJDG

Diego Garcia NSF Airport

Camp Justice, British Indian Ocean Territory
METAR FJDG 192255Z 14011KT 9999 FEW023 SCT048 OVC085 25/24 A2986 RMK SLP108 T02530240
Observed Flight Rules
Aug-19 @ 22:55 UTC (14 minutes ago) Visual Flight Rules
Wind Visibility Clouds
140° at 11 knots 10,000+ meters
  • Few at 2,300' AGL
  • Scattered at 4,800' AGL
  • Overcast at 8,500' AGL
Temperatures Readings
Current 25°C / 77°F
Dewpoint 24°C / 75°F
Humidity 94%
Altimeter 29.86" Hg
Pressure 1010.8 hPa
Elevation 3
METAR FJDG 192255Z 14011KT 9999 FEW023 SCT048 OVC085 25/24 A2986 RMK SLP108 T02530240
Observed Flight Rules
Aug-19 @ 22:55 UTC
(14 minutes ago)
VFR
Wind Visibility
140° at 11 knots 10,000+ meters
Clouds
  • Few at 2,300' AGL
  • Scattered at 4,800' AGL
  • Overcast at 8,500' AGL
Temperature Dewpoint
25°C / 77°F 24°C / 75°F
Humidity Altimeter Pressure
94% 29.86" Hg 1010.8 hPa